sensor_id;sensor_type;location;lat;lon;timestamp;P1;durP1;ratioP1;P2;durP2;ratioP2
72379;SDS011;60354;47.798;12.472;2023-09-19T00:00:23;2.17;;;1.05;;
72379;SDS011;60354;47.798;12.472;2023-09-19T00:02:55;1.75;;;1.10;;
72379;SDS011;60354;47.798;12.472;2023-09-19T00:05:24;4.03;;;1.08;;
72379;SDS011;60354;47.798;12.472;2023-09-19T00:07:55;3.45;;;1.10;;
72379;SDS011;60354;47.798;12.472;2023-09-19T00:10:23;1.83;;;1.08;;
72379;SDS011;60354;47.798;12.472;2023-09-19T00:12:56;2.97;;;1.40;;
72379;SDS011;60354;47.798;12.472;2023-09-19T00:15:24;5.22;;;1.13;;
72379;SDS011;60354;47.798;12.472;2023-09-19T00:17:51;1.85;;;1.10;;
72379;SDS011;60354;47.798;12.472;2023-09-19T00:20:17;2.42;;;1.00;;
72379;SDS011;60354;47.798;12.472;2023-09-19T00:22:43;1.85;;;1.10;;
72379;SDS011;60354;47.798;12.472;2023-09-19T00:25:12;2.22;;;1.10;;
72379;SDS011;60354;47.798;12.472;2023-09-19T00:27:41;4.20;;;1.23;;
72379;SDS011;60354;47.798;12.472;2023-09-19T00:30:10;3.15;;;1.27;;
72379;SDS011;60354;47.798;12.472;2023-09-19T00:32:50;2.28;;;1.17;;
72379;SDS011;60354;47.798;12.472;2023-09-19T00:35:20;2.58;;;1.00;;
72379;SDS011;60354;47.798;12.472;2023-09-19T00:37:49;1.83;;;1.08;;
72379;SDS011;60354;47.798;12.472;2023-09-19T00:40:14;2.35;;;1.23;;
72379;SDS011;60354;47.798;12.472;2023-09-19T00:42:44;4.50;;;1.20;;
72379;SDS011;60354;47.798;12.472;2023-09-19T00:45:11;1.25;;;0.93;;
72379;SDS011;60354;47.798;12.472;2023-09-19T00:47:45;2.10;;;1.13;;
72379;SDS011;60354;47.798;12.472;2023-09-19T00:50:15;2.40;;;1.00;;
72379;SDS011;60354;47.798;12.472;2023-09-19T00:52:42;1.83;;;1.08;;
72379;SDS011;60354;47.798;12.472;2023-09-19T00:55:09;3.63;;;1.20;;
72379;SDS011;60354;47.798;12.472;2023-09-19T00:57:36;3.10;;;1.10;;
72379;SDS011;60354;47.798;12.472;2023-09-19T01:00:03;3.03;;;1.40;;
72379;SDS011;60354;47.798;12.472;2023-09-19T01:02:31;3.05;;;1.00;;
72379;SDS011;60354;47.798;12.472;2023-09-19T01:04:57;2.35;;;1.10;;
72379;SDS011;60354;47.798;12.472;2023-09-19T01:07:23;1.67;;;1.20;;
72379;SDS011;60354;47.798;12.472;2023-09-19T01:09:49;2.42;;;1.30;;
72379;SDS011;60354;47.798;12.472;2023-09-19T01:12:16;1.98;;;1.00;;
72379;SDS011;60354;47.798;12.472;2023-09-19T01:14:51;2.45;;;1.38;;
72379;SDS011;60354;47.798;12.472;2023-09-19T01:20:09;3.97;;;1.27;;
72379;SDS011;60354;47.798;12.472;2023-09-19T01:23:00;1.55;;;0.90;;
72379;SDS011;60354;47.798;12.472;2023-09-19T01:28:39;2.75;;;0.90;;
72379;SDS011;60354;47.798;12.472;2023-09-19T01:31:19;2.75;;;1.00;;
72379;SDS011;60354;47.798;12.472;2023-09-19T01:33:56;2.75;;;1.10;;
72379;SDS011;60354;47.798;12.472;2023-09-19T01:36:28;2.88;;;1.30;;
72379;SDS011;60354;47.798;12.472;2023-09-19T01:38:54;3.38;;;1.10;;
72379;SDS011;60354;47.798;12.472;2023-09-19T01:41:26;4.05;;;1.13;;
72379;SDS011;60354;47.798;12.472;2023-09-19T01:43:58;2.05;;;1.00;;
72379;SDS011;60354;47.798;12.472;2023-09-19T01:46:38;2.20;;;1.20;;
72379;SDS011;60354;47.798;12.472;2023-09-19T01:49:18;1.45;;;1.05;;
72379;SDS011;60354;47.798;12.472;2023-09-19T01:51:59;1.52;;;1.00;;
72379;SDS011;60354;47.798;12.472;2023-09-19T01:54:36;1.85;;;1.10;;
72379;SDS011;60354;47.798;12.472;2023-09-19T01:59:47;2.60;;;1.00;;
72379;SDS011;60354;47.798;12.472;2023-09-19T02:02:17;1.42;;;1.05;;
72379;SDS011;60354;47.798;12.472;2023-09-19T02:04:47;3.08;;;1.00;;
72379;SDS011;60354;47.798;12.472;2023-09-19T02:07:14;2.97;;;1.15;;
72379;SDS011;60354;47.798;12.472;2023-09-19T02:09:40;2.60;;;1.20;;
72379;SDS011;60354;47.798;12.472;2023-09-19T02:12:08;1.92;;;1.10;;
72379;SDS011;60354;47.798;12.472;2023-09-19T02:14:34;3.15;;;1.10;;
72379;SDS011;60354;47.798;12.472;2023-09-19T02:17:02;2.25;;;1.10;;
72379;SDS011;60354;47.798;12.472;2023-09-19T02:19:32;4.45;;;1.23;;
72379;SDS011;60354;47.798;12.472;2023-09-19T02:21:59;1.92;;;1.00;;
72379;SDS011;60354;47.798;12.472;2023-09-19T02:24:25;1.95;;;1.08;;
72379;SDS011;60354;47.798;12.472;2023-09-19T02:26:52;2.95;;;1.15;;
72379;SDS011;60354;47.798;12.472;2023-09-19T02:29:17;2.53;;;1.00;;
72379;SDS011;60354;47.798;12.472;2023-09-19T02:31:43;2.00;;;1.00;;
72379;SDS011;60354;47.798;12.472;2023-09-19T02:34:09;2.67;;;1.10;;
72379;SDS011;60354;47.798;12.472;2023-09-19T02:36:35;1.88;;;1.00;;
72379;SDS011;60354;47.798;12.472;2023-09-19T02:39:01;3.20;;;1.20;;
72379;SDS011;60354;47.798;12.472;2023-09-19T02:41:28;1.55;;;1.17;;
72379;SDS011;60354;47.798;12.472;2023-09-19T02:43:54;1.98;;;1.00;;
72379;SDS011;60354;47.798;12.472;2023-09-19T02:46:20;2.75;;;1.00;;
72379;SDS011;60354;47.798;12.472;2023-09-19T02:48:45;2.25;;;1.08;;
72379;SDS011;60354;47.798;12.472;2023-09-19T02:51:12;3.03;;;1.00;;
72379;SDS011;60354;47.798;12.472;2023-09-19T02:53:38;3.42;;;1.00;;
72379;SDS011;60354;47.798;12.472;2023-09-19T02:56:04;3.90;;;1.15;;
72379;SDS011;60354;47.798;12.472;2023-09-19T02:58:30;1.90;;;1.20;;
72379;SDS011;60354;47.798;12.472;2023-09-19T03:01:07;2.75;;;1.02;;
72379;SDS011;60354;47.798;12.472;2023-09-19T03:03:34;2.60;;;1.10;;
72379;SDS011;60354;47.798;12.472;2023-09-19T03:05:59;2.47;;;1.20;;
72379;SDS011;60354;47.798;12.472;2023-09-19T03:08:29;2.97;;;1.20;;
72379;SDS011;60354;47.798;12.472;2023-09-19T03:10:55;2.40;;;1.20;;
72379;SDS011;60354;47.798;12.472;2023-09-19T03:13:20;2.38;;;1.15;;
72379;SDS011;60354;47.798;12.472;2023-09-19T03:15:46;2.80;;;1.33;;
72379;SDS011;60354;47.798;12.472;2023-09-19T03:18:12;2.00;;;1.20;;
72379;SDS011;60354;47.798;12.472;2023-09-19T03:20:39;3.25;;;1.20;;
72379;SDS011;60354;47.798;12.472;2023-09-19T03:23:04;2.13;;;1.20;;
72379;SDS011;60354;47.798;12.472;2023-09-19T03:25:31;2.38;;;1.33;;
72379;SDS011;60354;47.798;12.472;2023-09-19T03:27:59;2.80;;;1.20;;
72379;SDS011;60354;47.798;12.472;2023-09-19T03:30:26;1.95;;;1.20;;
72379;SDS011;60354;47.798;12.472;2023-09-19T03:32:52;2.85;;;1.10;;
72379;SDS011;60354;47.798;12.472;2023-09-19T03:35:18;1.63;;;1.13;;
72379;SDS011;60354;47.798;12.472;2023-09-19T03:37:44;3.38;;;1.17;;
72379;SDS011;60354;47.798;12.472;2023-09-19T03:40:13;2.67;;;1.20;;
72379;SDS011;60354;47.798;12.472;2023-09-19T03:42:39;2.58;;;1.30;;
72379;SDS011;60354;47.798;12.472;2023-09-19T03:45:07;1.85;;;1.20;;
72379;SDS011;60354;47.798;12.472;2023-09-19T03:47:40;2.10;;;1.10;;
72379;SDS011;60354;47.798;12.472;2023-09-19T03:50:08;2.33;;;1.20;;
72379;SDS011;60354;47.798;12.472;2023-09-19T03:52:36;2.15;;;1.20;;
72379;SDS011;60354;47.798;12.472;2023-09-19T03:55:02;1.67;;;1.20;;
72379;SDS011;60354;47.798;12.472;2023-09-19T03:57:31;2.78;;;1.27;;
72379;SDS011;60354;47.798;12.472;2023-09-19T03:59:56;2.75;;;1.23;;
72379;SDS011;60354;47.798;12.472;2023-09-19T04:02:22;3.42;;;1.40;;
72379;SDS011;60354;47.798;12.472;2023-09-19T04:04:49;1.70;;;1.13;;
72379;SDS011;60354;47.798;12.472;2023-09-19T04:07:16;3.63;;;1.23;;
72379;SDS011;60354;47.798;12.472;2023-09-19T04:09:42;2.78;;;1.20;;
72379;SDS011;60354;47.798;12.472;2023-09-19T04:12:07;1.55;;;1.02;;
72379;SDS011;60354;47.798;12.472;2023-09-19T04:14:36;1.88;;;1.05;;
72379;SDS011;60354;47.798;12.472;2023-09-19T04:17:02;3.85;;;1.30;;
72379;SDS011;60354;47.798;12.472;2023-09-19T04:19:28;3.33;;;1.25;;
72379;SDS011;60354;47.798;12.472;2023-09-19T04:21:54;4.20;;;1.40;;
72379;SDS011;60354;47.798;12.472;2023-09-19T04:24:19;2.17;;;1.15;;
72379;SDS011;60354;47.798;12.472;2023-09-19T04:26:45;2.50;;;1.10;;
72379;SDS011;60354;47.798;12.472;2023-09-19T04:29:11;1.50;;;1.13;;
72379;SDS011;60354;47.798;12.472;2023-09-19T04:31:39;2.17;;;1.30;;
72379;SDS011;60354;47.798;12.472;2023-09-19T04:34:05;1.60;;;1.02;;
72379;SDS011;60354;47.798;12.472;2023-09-19T04:36:33;2.63;;;1.35;;
72379;SDS011;60354;47.798;12.472;2023-09-19T04:39:00;3.53;;;1.30;;
72379;SDS011;60354;47.798;12.472;2023-09-19T04:41:27;2.95;;;1.40;;
72379;SDS011;60354;47.798;12.472;2023-09-19T04:43:52;3.50;;;1.30;;
72379;SDS011;60354;47.798;12.472;2023-09-19T04:46:18;2.28;;;1.35;;
72379;SDS011;60354;47.798;12.472;2023-09-19T04:48:43;2.80;;;1.20;;
72379;SDS011;60354;47.798;12.472;2023-09-19T04:51:09;2.58;;;1.30;;
72379;SDS011;60354;47.798;12.472;2023-09-19T04:53:35;3.53;;;1.27;;
72379;SDS011;60354;47.798;12.472;2023-09-19T04:56:01;2.42;;;1.17;;
72379;SDS011;60354;47.798;12.472;2023-09-19T04:58:29;3.50;;;1.33;;
72379;SDS011;60354;47.798;12.472;2023-09-19T05:00:55;2.85;;;1.30;;
72379;SDS011;60354;47.798;12.472;2023-09-19T05:03:21;1.70;;;1.20;;
72379;SDS011;60354;47.798;12.472;2023-09-19T05:05:47;2.65;;;1.30;;
72379;SDS011;60354;47.798;12.472;2023-09-19T05:08:13;2.53;;;1.30;;
72379;SDS011;60354;47.798;12.472;2023-09-19T05:10:40;4.28;;;1.35;;
72379;SDS011;60354;47.798;12.472;2023-09-19T05:13:06;1.80;;;1.10;;
72379;SDS011;60354;47.798;12.472;2023-09-19T05:15:33;2.13;;;1.13;;
72379;SDS011;60354;47.798;12.472;2023-09-19T05:17:58;3.05;;;1.50;;
72379;SDS011;60354;47.798;12.472;2023-09-19T05:20:24;2.45;;;1.27;;
72379;SDS011;60354;47.798;12.472;2023-09-19T05:25:27;2.03;;;1.33;;
72379;SDS011;60354;47.798;12.472;2023-09-19T05:27:55;2.83;;;1.40;;
72379;SDS011;60354;47.798;12.472;2023-09-19T05:30:23;4.72;;;1.40;;
72379;SDS011;60354;47.798;12.472;2023-09-19T05:32:49;3.95;;;1.30;;
72379;SDS011;60354;47.798;12.472;2023-09-19T05:35:14;2.38;;;1.10;;
72379;SDS011;60354;47.798;12.472;2023-09-19T05:37:40;1.80;;;1.05;;
72379;SDS011;60354;47.798;12.472;2023-09-19T05:40:06;1.80;;;1.20;;
72379;SDS011;60354;47.798;12.472;2023-09-19T05:42:35;1.95;;;1.25;;
72379;SDS011;60354;47.798;12.472;2023-09-19T05:45:01;3.63;;;1.20;;
72379;SDS011;60354;47.798;12.472;2023-09-19T05:47:26;1.70;;;1.08;;
72379;SDS011;60354;47.798;12.472;2023-09-19T05:49:52;1.85;;;1.10;;
72379;SDS011;60354;47.798;12.472;2023-09-19T05:52:18;4.13;;;1.30;;
72379;SDS011;60354;47.798;12.472;2023-09-19T05:54:45;1.40;;;1.00;;
72379;SDS011;60354;47.798;12.472;2023-09-19T05:57:10;1.90;;;1.00;;
72379;SDS011;60354;47.798;12.472;2023-09-19T05:59:37;0.88;;;0.75;;
72379;SDS011;60354;47.798;12.472;2023-09-19T06:02:05;1.42;;;0.90;;
72379;SDS011;60354;47.798;12.472;2023-09-19T06:04:31;0.98;;;0.70;;
72379;SDS011;60354;47.798;12.472;2023-09-19T06:06:57;2.03;;;0.80;;
72379;SDS011;60354;47.798;12.472;2023-09-19T06:09:23;1.67;;;0.70;;
72379;SDS011;60354;47.798;12.472;2023-09-19T06:11:49;2.13;;;0.60;;
72379;SDS011;60354;47.798;12.472;2023-09-19T06:14:14;1.88;;;0.80;;
72379;SDS011;60354;47.798;12.472;2023-09-19T06:16:42;2.15;;;0.90;;
72379;SDS011;60354;47.798;12.472;2023-09-19T06:19:08;2.28;;;1.02;;
72379;SDS011;60354;47.798;12.472;2023-09-19T06:21:35;4.43;;;1.00;;
72379;SDS011;60354;47.798;12.472;2023-09-19T06:24:01;2.85;;;1.10;;
72379;SDS011;60354;47.798;12.472;2023-09-19T06:26:28;2.80;;;1.35;;
72379;SDS011;60354;47.798;12.472;2023-09-19T06:28:54;3.05;;;1.20;;
72379;SDS011;60354;47.798;12.472;2023-09-19T06:31:21;2.45;;;1.13;;
72379;SDS011;60354;47.798;12.472;2023-09-19T06:33:48;3.00;;;1.20;;
72379;SDS011;60354;47.798;12.472;2023-09-19T06:36:14;5.05;;;1.30;;
72379;SDS011;60354;47.798;12.472;2023-09-19T06:38:40;1.55;;;1.00;;
72379;SDS011;60354;47.798;12.472;2023-09-19T06:41:06;1.40;;;1.00;;
72379;SDS011;60354;47.798;12.472;2023-09-19T06:43:34;2.47;;;1.45;;
72379;SDS011;60354;47.798;12.472;2023-09-19T06:46:00;2.72;;;1.25;;
72379;SDS011;60354;47.798;12.472;2023-09-19T06:48:26;1.73;;;1.10;;
72379;SDS011;60354;47.798;12.472;2023-09-19T06:50:55;3.22;;;1.20;;
72379;SDS011;60354;47.798;12.472;2023-09-19T06:53:23;2.15;;;1.23;;
72379;SDS011;60354;47.798;12.472;2023-09-19T06:55:52;4.80;;;1.20;;
72379;SDS011;60354;47.798;12.472;2023-09-19T06:58:18;2.47;;;1.23;;
72379;SDS011;60354;47.798;12.472;2023-09-19T07:00:45;2.55;;;1.20;;
72379;SDS011;60354;47.798;12.472;2023-09-19T07:03:13;2.83;;;1.50;;
72379;SDS011;60354;47.798;12.472;2023-09-19T07:05:39;3.63;;;1.42;;
72379;SDS011;60354;47.798;12.472;2023-09-19T07:08:06;2.00;;;1.30;;
72379;SDS011;60354;47.798;12.472;2023-09-19T07:10:33;7.40;;;1.42;;
72379;SDS011;60354;47.798;12.472;2023-09-19T07:12:59;2.92;;;1.30;;
72379;SDS011;60354;47.798;12.472;2023-09-19T07:15:29;2.53;;;1.30;;
72379;SDS011;60354;47.798;12.472;2023-09-19T07:18:00;1.98;;;1.10;;
72379;SDS011;60354;47.798;12.472;2023-09-19T07:20:26;2.15;;;1.27;;
72379;SDS011;60354;47.798;12.472;2023-09-19T07:22:52;1.38;;;1.08;;
72379;SDS011;60354;47.798;12.472;2023-09-19T07:25:20;1.75;;;1.23;;
72379;SDS011;60354;47.798;12.472;2023-09-19T07:27:46;3.25;;;1.15;;
72379;SDS011;60354;47.798;12.472;2023-09-19T07:30:11;4.78;;;1.30;;
72379;SDS011;60354;47.798;12.472;2023-09-19T07:32:37;1.70;;;1.13;;
72379;SDS011;60354;47.798;12.472;2023-09-19T07:35:04;2.50;;;1.30;;
72379;SDS011;60354;47.798;12.472;2023-09-19T07:37:31;2.88;;;1.17;;
72379;SDS011;60354;47.798;12.472;2023-09-19T07:39:59;1.80;;;1.20;;
72379;SDS011;60354;47.798;12.472;2023-09-19T07:44:58;5.60;;;1.33;;
72379;SDS011;60354;47.798;12.472;2023-09-19T07:47:25;2.38;;;1.40;;
72379;SDS011;60354;47.798;12.472;2023-09-19T07:49:50;3.05;;;1.13;;
72379;SDS011;60354;47.798;12.472;2023-09-19T07:52:16;3.10;;;1.30;;
72379;SDS011;60354;47.798;12.472;2023-09-19T07:54:41;3.08;;;1.40;;
72379;SDS011;60354;47.798;12.472;2023-09-19T07:57:09;2.35;;;1.40;;
72379;SDS011;60354;47.798;12.472;2023-09-19T07:59:35;2.47;;;1.13;;
72379;SDS011;60354;47.798;12.472;2023-09-19T08:02:01;1.48;;;1.15;;
72379;SDS011;60354;47.798;12.472;2023-09-19T08:04:29;2.35;;;1.38;;
72379;SDS011;60354;47.798;12.472;2023-09-19T08:06:58;2.22;;;1.20;;
72379;SDS011;60354;47.798;12.472;2023-09-19T08:09:28;2.90;;;1.30;;
72379;SDS011;60354;47.798;12.472;2023-09-19T08:11:58;3.22;;;1.20;;
72379;SDS011;60354;47.798;12.472;2023-09-19T08:14:24;2.20;;;1.33;;
72379;SDS011;60354;47.798;12.472;2023-09-19T08:16:51;4.75;;;1.25;;
72379;SDS011;60354;47.798;12.472;2023-09-19T08:19:16;2.28;;;1.00;;
72379;SDS011;60354;47.798;12.472;2023-09-19T08:21:42;1.88;;;1.15;;
72379;SDS011;60354;47.798;12.472;2023-09-19T08:24:11;2.05;;;0.98;;
72379;SDS011;60354;47.798;12.472;2023-09-19T08:26:37;1.33;;;1.08;;
72379;SDS011;60354;47.798;12.472;2023-09-19T08:29:03;2.58;;;1.00;;
72379;SDS011;60354;47.798;12.472;2023-09-19T08:31:29;8.30;;;1.20;;
72379;SDS011;60354;47.798;12.472;2023-09-19T08:33:55;1.98;;;0.98;;
72379;SDS011;60354;47.798;12.472;2023-09-19T08:36:24;1.63;;;1.10;;
72379;SDS011;60354;47.798;12.472;2023-09-19T08:38:50;2.55;;;1.48;;
72379;SDS011;60354;47.798;12.472;2023-09-19T08:41:16;2.05;;;1.20;;
72379;SDS011;60354;47.798;12.472;2023-09-19T08:43:42;2.47;;;0.90;;
72379;SDS011;60354;47.798;12.472;2023-09-19T08:46:11;1.70;;;1.00;;
72379;SDS011;60354;47.798;12.472;2023-09-19T08:48:46;2.72;;;0.93;;
72379;SDS011;60354;47.798;12.472;2023-09-19T08:51:26;1.65;;;1.00;;
72379;SDS011;60354;47.798;12.472;2023-09-19T08:53:58;1.60;;;0.90;;
72379;SDS011;60354;47.798;12.472;2023-09-19T08:56:30;2.45;;;0.80;;
72379;SDS011;60354;47.798;12.472;2023-09-19T08:59:04;2.35;;;0.90;;
72379;SDS011;60354;47.798;12.472;2023-09-19T09:01:34;2.50;;;1.00;;
72379;SDS011;60354;47.798;12.472;2023-09-19T09:04:01;1.73;;;1.15;;
72379;SDS011;60354;47.798;12.472;2023-09-19T09:06:27;1.65;;;1.08;;
72379;SDS011;60354;47.798;12.472;2023-09-19T09:08:54;3.42;;;1.10;;
72379;SDS011;60354;47.798;12.472;2023-09-19T09:11:20;1.38;;;0.90;;
72379;SDS011;60354;47.798;12.472;2023-09-19T09:13:47;2.47;;;0.95;;
72379;SDS011;60354;47.798;12.472;2023-09-19T09:16:13;2.63;;;1.20;;
72379;SDS011;60354;47.798;12.472;2023-09-19T09:18:42;3.25;;;0.93;;
72379;SDS011;60354;47.798;12.472;2023-09-19T09:21:09;3.38;;;1.00;;
72379;SDS011;60354;47.798;12.472;2023-09-19T09:23:35;1.48;;;0.80;;
72379;SDS011;60354;47.798;12.472;2023-09-19T09:26:01;1.58;;;0.80;;
72379;SDS011;60354;47.798;12.472;2023-09-19T09:28:28;2.13;;;0.90;;
72379;SDS011;60354;47.798;12.472;2023-09-19T09:30:55;4.15;;;0.90;;
72379;SDS011;60354;47.798;12.472;2023-09-19T09:33:23;3.28;;;1.00;;
72379;SDS011;60354;47.798;12.472;2023-09-19T09:35:56;3.05;;;1.00;;
72379;SDS011;60354;47.798;12.472;2023-09-19T09:38:26;1.27;;;0.80;;
72379;SDS011;60354;47.798;12.472;2023-09-19T09:40:53;1.98;;;1.02;;
72379;SDS011;60354;47.798;12.472;2023-09-19T09:43:36;1.92;;;1.00;;
72379;SDS011;60354;47.798;12.472;2023-09-19T09:51:39;1.27;;;0.80;;
72379;SDS011;60354;47.798;12.472;2023-09-19T09:54:17;1.17;;;0.70;;
72379;SDS011;60354;47.798;12.472;2023-09-19T10:02:15;1.27;;;0.85;;
72379;SDS011;60354;47.798;12.472;2023-09-19T10:04:54;1.83;;;0.90;;
72379;SDS011;60354;47.798;12.472;2023-09-19T10:07:25;2.65;;;0.90;;
72379;SDS011;60354;47.798;12.472;2023-09-19T10:09:53;1.60;;;0.95;;
72379;SDS011;60354;47.798;12.472;2023-09-19T10:12:24;1.90;;;0.88;;
72379;SDS011;60354;47.798;12.472;2023-09-19T10:14:52;1.00;;;0.85;;
72379;SDS011;60354;47.798;12.472;2023-09-19T10:17:18;1.70;;;0.80;;
72379;SDS011;60354;47.798;12.472;2023-09-19T10:19:55;3.72;;;0.90;;
72379;SDS011;60354;47.798;12.472;2023-09-19T10:22:27;1.30;;;0.80;;
72379;SDS011;60354;47.798;12.472;2023-09-19T10:24:56;1.10;;;0.73;;
72379;SDS011;60354;47.798;12.472;2023-09-19T10:27:25;2.92;;;0.75;;
72379;SDS011;60354;47.798;12.472;2023-09-19T10:29:52;2.17;;;0.77;;
72379;SDS011;60354;47.798;12.472;2023-09-19T10:32:22;1.05;;;0.80;;
72379;SDS011;60354;47.798;12.472;2023-09-19T10:34:49;2.08;;;0.85;;
72379;SDS011;60354;47.798;12.472;2023-09-19T10:37:18;1.10;;;0.82;;
72379;SDS011;60354;47.798;12.472;2023-09-19T10:39:50;4.53;;;0.90;;
72379;SDS011;60354;47.798;12.472;2023-09-19T10:42:19;1.50;;;0.70;;
72379;SDS011;60354;47.798;12.472;2023-09-19T10:44:45;2.40;;;0.93;;
72379;SDS011;60354;47.798;12.472;2023-09-19T10:47:15;0.90;;;0.60;;
72379;SDS011;60354;47.798;12.472;2023-09-19T10:49:44;1.23;;;0.70;;
72379;SDS011;60354;47.798;12.472;2023-09-19T10:52:14;3.13;;;0.70;;
72379;SDS011;60354;47.798;12.472;2023-09-19T10:54:45;1.10;;;0.60;;
72379;SDS011;60354;47.798;12.472;2023-09-19T10:57:23;2.08;;;0.90;;
72379;SDS011;60354;47.798;12.472;2023-09-19T11:05:43;3.70;;;0.80;;
72379;SDS011;60354;47.798;12.472;2023-09-19T11:08:26;1.95;;;0.77;;
72379;SDS011;60354;47.798;12.472;2023-09-19T11:10:52;1.60;;;0.65;;
72379;SDS011;60354;47.798;12.472;2023-09-19T11:21:38;2.25;;;0.80;;
72379;SDS011;60354;47.798;12.472;2023-09-19T11:26:47;1.20;;;0.80;;
72379;SDS011;60354;47.798;12.472;2023-09-19T11:29:26;1.40;;;0.90;;
72379;SDS011;60354;47.798;12.472;2023-09-19T11:31:52;1.45;;;0.70;;
72379;SDS011;60354;47.798;12.472;2023-09-19T11:40:06;1.42;;;0.70;;
72379;SDS011;60354;47.798;12.472;2023-09-19T11:42:49;2.25;;;0.80;;
72379;SDS011;60354;47.798;12.472;2023-09-19T11:48:14;1.00;;;0.60;;
72379;SDS011;60354;47.798;12.472;2023-09-19T11:50:44;1.30;;;0.75;;
72379;SDS011;60354;47.798;12.472;2023-09-19T11:53:13;1.83;;;0.85;;
72379;SDS011;60354;47.798;12.472;2023-09-19T11:55:42;2.20;;;0.70;;
72379;SDS011;60354;47.798;12.472;2023-09-19T11:58:09;1.38;;;0.70;;
72379;SDS011;60354;47.798;12.472;2023-09-19T12:00:38;2.72;;;0.90;;
72379;SDS011;60354;47.798;12.472;2023-09-19T12:03:08;1.70;;;0.70;;
72379;SDS011;60354;47.798;12.472;2023-09-19T12:05:39;2.13;;;0.75;;
72379;SDS011;60354;47.798;12.472;2023-09-19T12:08:04;2.00;;;0.60;;
72379;SDS011;60354;47.798;12.472;2023-09-19T12:10:46;0.70;;;0.65;;
72379;SDS011;60354;47.798;12.472;2023-09-19T12:13:19;0.98;;;0.80;;
72379;SDS011;60354;47.798;12.472;2023-09-19T12:15:45;0.85;;;0.70;;
72379;SDS011;60354;47.798;12.472;2023-09-19T12:18:31;1.40;;;0.82;;
72379;SDS011;60354;47.798;12.472;2023-09-19T12:23:23;3.33;;;0.90;;
72379;SDS011;60354;47.798;12.472;2023-09-19T12:25:51;1.20;;;0.80;;
72379;SDS011;60354;47.798;12.472;2023-09-19T12:28:19;1.55;;;0.82;;
72379;SDS011;60354;47.798;12.472;2023-09-19T12:30:48;2.90;;;1.10;;
72379;SDS011;60354;47.798;12.472;2023-09-19T12:33:17;0.85;;;0.80;;
72379;SDS011;60354;47.798;12.472;2023-09-19T12:35:50;0.95;;;0.60;;
72379;SDS011;60354;47.798;12.472;2023-09-19T12:38:26;1.23;;;0.70;;
72379;SDS011;60354;47.798;12.472;2023-09-19T12:40:57;1.02;;;0.80;;
72379;SDS011;60354;47.798;12.472;2023-09-19T12:43:25;1.42;;;0.80;;
72379;SDS011;60354;47.798;12.472;2023-09-19T12:45:52;2.85;;;0.80;;
72379;SDS011;60354;47.798;12.472;2023-09-19T12:48:22;1.65;;;0.82;;
72379;SDS011;60354;47.798;12.472;2023-09-19T12:51:05;1.65;;;1.00;;
72379;SDS011;60354;47.798;12.472;2023-09-19T12:53:33;1.33;;;0.70;;
72379;SDS011;60354;47.798;12.472;2023-09-19T12:56:03;3.33;;;1.00;;
72379;SDS011;60354;47.798;12.472;2023-09-19T12:58:32;2.25;;;0.90;;
72379;SDS011;60354;47.798;12.472;2023-09-19T13:01:00;1.05;;;0.77;;
72379;SDS011;60354;47.798;12.472;2023-09-19T13:03:30;4.55;;;0.88;;
72379;SDS011;60354;47.798;12.472;2023-09-19T13:06:00;1.45;;;0.80;;
72379;SDS011;60354;47.798;12.472;2023-09-19T13:08:30;1.77;;;0.90;;
72379;SDS011;60354;47.798;12.472;2023-09-19T13:13:27;1.02;;;0.73;;
72379;SDS011;60354;47.798;12.472;2023-09-19T13:15:53;0.98;;;0.68;;
72379;SDS011;60354;47.798;12.472;2023-09-19T13:18:22;1.50;;;0.80;;
72379;SDS011;60354;47.798;12.472;2023-09-19T13:21:07;1.33;;;0.80;;
72379;SDS011;60354;47.798;12.472;2023-09-19T13:23:37;0.95;;;0.70;;
72379;SDS011;60354;47.798;12.472;2023-09-19T13:26:03;1.95;;;0.90;;
72379;SDS011;60354;47.798;12.472;2023-09-19T13:28:31;1.73;;;0.90;;
72379;SDS011;60354;47.798;12.472;2023-09-19T13:30:58;0.93;;;0.73;;
72379;SDS011;60354;47.798;12.472;2023-09-19T13:33:23;2.20;;;0.70;;
72379;SDS011;60354;47.798;12.472;2023-09-19T13:35:49;1.17;;;0.70;;
72379;SDS011;60354;47.798;12.472;2023-09-19T13:38:15;1.40;;;0.68;;
72379;SDS011;60354;47.798;12.472;2023-09-19T13:40:40;1.08;;;0.73;;
72379;SDS011;60354;47.798;12.472;2023-09-19T13:43:09;1.05;;;0.90;;
72379;SDS011;60354;47.798;12.472;2023-09-19T13:45:36;0.70;;;0.63;;
72379;SDS011;60354;47.798;12.472;2023-09-19T13:48:02;1.30;;;0.70;;
72379;SDS011;60354;47.798;12.472;2023-09-19T13:50:28;1.00;;;0.57;;
72379;SDS011;60354;47.798;12.472;2023-09-19T13:52:54;1.17;;;0.75;;
72379;SDS011;60354;47.798;12.472;2023-09-19T13:55:19;0.70;;;0.60;;
72379;SDS011;60354;47.798;12.472;2023-09-19T13:57:46;0.88;;;0.60;;
72379;SDS011;60354;47.798;12.472;2023-09-19T14:00:14;1.00;;;0.60;;
72379;SDS011;60354;47.798;12.472;2023-09-19T14:02:41;1.45;;;0.80;;
72379;SDS011;60354;47.798;12.472;2023-09-19T14:05:09;2.85;;;0.80;;
72379;SDS011;60354;47.798;12.472;2023-09-19T14:07:37;0.95;;;0.70;;
72379;SDS011;60354;47.798;12.472;2023-09-19T14:10:03;1.00;;;0.70;;
72379;SDS011;60354;47.798;12.472;2023-09-19T14:12:32;0.70;;;0.70;;
72379;SDS011;60354;47.798;12.472;2023-09-19T14:14:58;1.52;;;0.80;;
72379;SDS011;60354;47.798;12.472;2023-09-19T14:17:24;1.30;;;0.77;;
72379;SDS011;60354;47.798;12.472;2023-09-19T14:19:50;2.78;;;0.80;;
72379;SDS011;60354;47.798;12.472;2023-09-19T14:22:17;0.82;;;0.60;;
72379;SDS011;60354;47.798;12.472;2023-09-19T14:24:42;0.95;;;0.70;;
72379;SDS011;60354;47.798;12.472;2023-09-19T14:27:09;1.73;;;0.75;;
72379;SDS011;60354;47.798;12.472;2023-09-19T14:29:34;1.65;;;0.80;;
72379;SDS011;60354;47.798;12.472;2023-09-19T14:32:01;2.20;;;0.82;;
72379;SDS011;60354;47.798;12.472;2023-09-19T14:34:27;1.35;;;0.80;;
72379;SDS011;60354;47.798;12.472;2023-09-19T14:36:52;0.93;;;0.70;;
72379;SDS011;60354;47.798;12.472;2023-09-19T14:39:19;1.02;;;0.70;;
72379;SDS011;60354;47.798;12.472;2023-09-19T14:41:45;1.45;;;0.70;;
72379;SDS011;60354;47.798;12.472;2023-09-19T14:44:10;0.70;;;0.60;;
72379;SDS011;60354;47.798;12.472;2023-09-19T14:46:36;1.70;;;0.95;;
72379;SDS011;60354;47.798;12.472;2023-09-19T14:49:02;2.03;;;0.88;;
72379;SDS011;60354;47.798;12.472;2023-09-19T14:51:29;1.02;;;0.73;;
72379;SDS011;60354;47.798;12.472;2023-09-19T14:53:55;1.48;;;0.88;;
72379;SDS011;60354;47.798;12.472;2023-09-19T14:56:22;2.50;;;0.80;;
72379;SDS011;60354;47.798;12.472;2023-09-19T14:58:49;1.05;;;0.68;;
72379;SDS011;60354;47.798;12.472;2023-09-19T15:01:14;2.30;;;0.80;;
72379;SDS011;60354;47.798;12.472;2023-09-19T15:03:40;1.35;;;0.90;;
72379;SDS011;60354;47.798;12.472;2023-09-19T15:06:07;1.08;;;0.70;;
72379;SDS011;60354;47.798;12.472;2023-09-19T15:08:34;1.05;;;0.70;;
72379;SDS011;60354;47.798;12.472;2023-09-19T15:11:04;1.20;;;0.73;;
72379;SDS011;60354;47.798;12.472;2023-09-19T15:13:31;3.17;;;0.80;;
72379;SDS011;60354;47.798;12.472;2023-09-19T15:16:03;1.30;;;0.80;;
72379;SDS011;60354;47.798;12.472;2023-09-19T15:18:34;1.33;;;0.80;;
72379;SDS011;60354;47.798;12.472;2023-09-19T15:21:03;3.00;;;0.80;;
72379;SDS011;60354;47.798;12.472;2023-09-19T15:23:35;2.05;;;0.90;;
72379;SDS011;60354;47.798;12.472;2023-09-19T15:26:02;1.35;;;0.70;;
72379;SDS011;60354;47.798;12.472;2023-09-19T15:28:31;2.88;;;0.80;;
72379;SDS011;60354;47.798;12.472;2023-09-19T15:30:59;1.98;;;0.70;;
72379;SDS011;60354;47.798;12.472;2023-09-19T15:33:29;1.65;;;0.80;;